Bermuda Spirit — C6XT2 — position and weather

sailwx.info

Track history (hours):
 
Tides and Currents Weather Stations Pressure Air Temp Water Temp Dewpoint Dewpoint Depression Visibility Wind Speed Wind Dir Waves Ship Positions

Bermuda Spirit

Last reported at 2015-Dec-17 18:33 UTC. Time now 2016-Feb-13 04:39 UTC.
Position N 33°37' W 009°30'.
Warning: this ship's position is 57 days out of date.

Length 274 m; draft 9 m.

Type: Tanker. MMSI: 311020900.

Date/timePositionNaut miles runAvg speedWind from/ knotsBaromVisibWave heightAir tempDewpointWater temp
2015-Dec-17 18:33N 33°37' W 009°30'1514.6
2015-Dec-17 17:31N 33°48' W 009°18'1414.5
2015-Dec-17 16:33N 33°56' W 009°04'1514.7
2015-Dec-17 15:33N 34°06' W 008°51'1514.5
2015-Dec-17 14:33N 34°16' W 008°38'1514.7
2015-Dec-17 13:33N 34°26' W 008°25'1514.7
2015-Dec-17 12:33N 34°37' W 008°13'1514.9
2015-Dec-17 11:33N 34°46' W 007°59'1714.8
2015-Dec-17 10:25N 34°58' W 007°44'1214.3
2015-Dec-17 09:33N 35°06' W 007°33'1211.4
2015-Dec-17 08:33N 35°14' W 007°23'8 8.1
2015-Dec-17 07:33N 35°19' W 007°15'8 8.0
2015-Dec-17 06:33N 35°25' W 007°08'8 8.0
2015-Dec-17 05:33N 35°30' W 007°01'8 8.0
2015-Dec-17 04:33N 35°36' W 006°54'8 7.9
2015-Dec-17 03:33N 35°41' W 006°47'8 8.0
2015-Dec-17 02:33N 35°46' W 006°38'8 8.1
2015-Dec-17 01:33N 35°49' W 006°29'8 8.1
2015-Dec-17 00:33N 35°51' W 006°20'8 7.6
2015-Dec-16 23:33N 35°56' W 006°12'7 7.4
2015-Dec-16 22:33N 35°57' W 006°03'8 7.6
2015-Dec-16 21:32N 35°57' W 005°54'7 7.4
2015-Dec-16 20:33N 35°58' W 005°45'7 7.1
2015-Dec-16 19:33N 35°58' W 005°36'8 8.1
2015-Dec-16 18:33N 36°00' W 005°27'8 7.7
2015-Dec-16 17:33N 36°08' W 005°24'2 2.3
2015-Dec-16 16:32N 36°10' W 005°24'0 0.1
2015-Dec-16 15:26N 36°10' W 005°24'0 0.2
2015-Dec-16 14:32N 36°10' W 005°24'0 0.0
2015-Dec-16 13:29N 36°10' W 005°24'0 0.2
2015-Dec-16 12:32N 36°10' W 005°24'0 0.2
2015-Dec-16 11:23N 36°10' W 005°24'0 0.1
2015-Dec-16 10:32N 36°10' W 005°23'0 0.0
2015-Dec-16 09:23N 36°10' W 005°24'0 0.0
2015-Dec-16 08:29N 36°10' W 005°24'0 0.0
2015-Dec-16 07:29N 36°10' W 005°24'0 0.0
2015-Dec-16 06:29N 36°10' W 005°24'0 0.0
2015-Dec-16 05:29N 36°10' W 005°24'0 0.0
2015-Dec-16 04:29N 36°10' W 005°24'0 0.2
2015-Dec-16 03:32N 36°10' W 005°24'0 0.0
2015-Dec-16 02:32N 36°10' W 005°24'0 0.1
2015-Dec-16 01:32N 36°10' W 005°23'0 0.1
2015-Dec-16 00:32N 36°10' W 005°24'0 0.0
2015-Dec-15 23:29N 36°10' W 005°24'0 0.0
2015-Dec-15 22:29N 36°10' W 005°24'0 0.0
2015-Dec-15 21:29N 36°10' W 005°24'0 0.0
2015-Dec-15 20:32N 36°10' W 005°24'0 0.1
2015-Dec-15 18:32N 36°10' W 005°24'0 0.2
2015-Dec-15 17:32N 36°10' W 005°24'0 0.0
2015-Dec-15 16:29N 36°10' W 005°24'0 0.0
2015-Dec-15 15:29N 36°10' W 005°24'0 0.0
2015-Dec-15 14:29N 36°10' W 005°24'0 0.0
2015-Dec-15 13:29N 36°10' W 005°24'0 0.1
2015-Dec-15 12:32N 36°10' W 005°24'0 0.2
2015-Dec-15 11:29N 36°10' W 005°24'0 0.0
2015-Dec-15 09:08N 36°10' W 005°24'0 0.0
2015-Dec-15 08:29N 36°10' W 005°24'0 0.0
2015-Dec-15 07:32N 36°10' W 005°24'0 0.0
2015-Dec-15 06:32N 36°10' W 005°24'0 0.0
2015-Dec-15 05:33N 36°10' W 005°24'0 0.2
2015-Dec-15 04:34N 36°10' W 005°23'0 0.2
2015-Dec-15 03:33N 36°10' W 005°24'0 0.1
2015-Dec-15 02:33N 36°10' W 005°24'0 0.2
2015-Dec-15 01:34N 36°10' W 005°24'0 0.0
2015-Dec-15 00:34N 36°10' W 005°24'0 0.1
2015-Dec-14 23:32N 36°10' W 005°24'0 0.1
2015-Dec-14 22:33N 36°10' W 005°24'0 0.1
2015-Dec-14 21:33N 36°10' W 005°24'0 0.2
2015-Dec-14 20:34N 36°10' W 005°24'0 0.0
2015-Dec-14 19:33N 36°10' W 005°24'0 0.0
2015-Dec-14 18:33N 36°10' W 005°24'0 0.1
2015-Dec-14 17:33N 36°10' W 005°24'0 0.1
2015-Dec-14 16:33N 36°10' W 005°24'0 0.0
2015-Dec-14 15:33N 36°10' W 005°24'0 0.0
2015-Dec-14 14:33N 36°10' W 005°24'0 0.0
2015-Dec-14 13:34N 36°10' W 005°24'0 0.1
2015-Dec-14 12:33N 36°10' W 005°24'0 0.1
2015-Dec-14 11:33N 36°10' W 005°24'0 0.1
2015-Dec-14 10:33N 36°10' W 005°24'2 2.4
2015-Dec-14 09:33N 36°07' W 005°23'4 3.6
2015-Dec-14 08:34N 36°05' W 005°20'7 7.0
2015-Dec-14 07:33N 36°10' W 005°14'0 0.5
2015-Dec-14 06:33N 36°11' W 005°14'0 0.4
2015-Dec-14 05:33N 36°10' W 005°14'1 0.6
2015-Dec-14 04:33N 36°10' W 005°14'0 0.3
2015-Dec-14 03:33N 36°10' W 005°13'1 0.6
2015-Dec-14 02:33N 36°09' W 005°13'1 0.8
2015-Dec-14 01:33N 36°09' W 005°12'1 0.9
2015-Dec-14 00:33N 36°10' W 005°11'1 0.8
2015-Dec-13 23:33N 36°10' W 005°10'1 0.6
2015-Dec-13 22:33N 36°11' W 005°10'0 0.0
2015-Dec-13 21:33N 36°11' W 005°10'0 0.3
2015-Dec-13 20:32N 36°11' W 005°10'0 0.5
2015-Dec-13 19:33N 36°10' W 005°10'0 0.4
2015-Dec-13 18:33N 36°10' W 005°10'1 0.6
2015-Dec-13 17:33N 36°09' W 005°10'1 0.4
2015-Dec-13 16:10N 36°09' W 005°10'0 0.4
2015-Dec-13 15:33N 36°09' W 005°11'0 0.3
2015-Dec-13 14:33N 36°09' W 005°11'1 1.0
2015-Dec-13 13:33N 36°09' W 005°12'8 8.3
2015-Dec-13 12:33N 36°04' W 005°20'1111.3
2015-Dec-13 11:33N 35°57' W 005°31'1111.0
2015-Dec-13 10:33N 35°54' W 005°44'8 8.3
2015-Dec-13 09:33N 35°55' W 005°54'  
2015-Dec-09 01:33N 29°06' W 015°08'1212.4
2015-Dec-09 00:33N 28°57' W 015°18'1312.4
2015-Dec-08 23:33N 28°48' W 015°28'1212.4
2015-Dec-08 22:33N 28°38' W 015°37'1212.4
2015-Dec-08 21:33N 28°29' W 015°46'1312.8
2015-Dec-08 20:33N 28°19' W 015°55'4113.3
2015-Dec-08 17:30N 27°47' W 016°24'  
Track history (hours):
 
Tides and Currents Weather Stations Pressure Air Temp Water Temp Dewpoint Dewpoint Depression Visibility Wind Speed Wind Dir Waves Ship Positions

Bermuda Spirit

Last reported at 2015-Dec-17 18:33 UTC. Time now 2016-Feb-13 04:39 UTC.
Position N 33°37' W 009°30'.
Warning: this ship's position is 57 days out of date.

Length 274 m; draft 9 m.

Type: Tanker. MMSI: 311020900.

Date/timePositionNaut miles runAvg speedWind from/ knotsBaromVisibWave heightAir tempDewpointWater temp
2015-Dec-17 18:33N 33°37' W 009°30'1514.6
2015-Dec-17 17:31N 33°48' W 009°18'1414.5
2015-Dec-17 16:33N 33°56' W 009°04'1514.7
2015-Dec-17 15:33N 34°06' W 008°51'1514.5
2015-Dec-17 14:33N 34°16' W 008°38'1514.7
2015-Dec-17 13:33N 34°26' W 008°25'1514.7
2015-Dec-17 12:33N 34°37' W 008°13'1514.9
2015-Dec-17 11:33N 34°46' W 007°59'1714.8
2015-Dec-17 10:25N 34°58' W 007°44'1214.3
2015-Dec-17 09:33N 35°06' W 007°33'1211.4
2015-Dec-17 08:33N 35°14' W 007°23'8 8.1
2015-Dec-17 07:33N 35°19' W 007°15'8 8.0
2015-Dec-17 06:33N 35°25' W 007°08'8 8.0
2015-Dec-17 05:33N 35°30' W 007°01'8 8.0
2015-Dec-17 04:33N 35°36' W 006°54'8 7.9
2015-Dec-17 03:33N 35°41' W 006°47'8 8.0
2015-Dec-17 02:33N 35°46' W 006°38'8 8.1
2015-Dec-17 01:33N 35°49' W 006°29'8 8.1
2015-Dec-17 00:33N 35°51' W 006°20'8 7.6
2015-Dec-16 23:33N 35°56' W 006°12'7 7.4
2015-Dec-16 22:33N 35°57' W 006°03'8 7.6
2015-Dec-16 21:32N 35°57' W 005°54'7 7.4
2015-Dec-16 20:33N 35°58' W 005°45'7 7.1
2015-Dec-16 19:33N 35°58' W 005°36'8 8.1
2015-Dec-16 18:33N 36°00' W 005°27'8 7.7
2015-Dec-16 17:33N 36°08' W 005°24'2 2.3
2015-Dec-16 16:32N 36°10' W 005°24'0 0.1
2015-Dec-16 15:26N 36°10' W 005°24'0 0.2
2015-Dec-16 14:32N 36°10' W 005°24'0 0.0
2015-Dec-16 13:29N 36°10' W 005°24'0 0.2
2015-Dec-16 12:32N 36°10' W 005°24'0 0.2
2015-Dec-16 11:23N 36°10' W 005°24'0 0.1
2015-Dec-16 10:32N 36°10' W 005°23'0 0.0
2015-Dec-16 09:23N 36°10' W 005°24'0 0.0
2015-Dec-16 08:29N 36°10' W 005°24'0 0.0
2015-Dec-16 07:29N 36°10' W 005°24'0 0.0
2015-Dec-16 06:29N 36°10' W 005°24'0 0.0
2015-Dec-16 05:29N 36°10' W 005°24'0 0.0
2015-Dec-16 04:29N 36°10' W 005°24'0 0.2
2015-Dec-16 03:32N 36°10' W 005°24'0 0.0
2015-Dec-16 02:32N 36°10' W 005°24'0 0.1
2015-Dec-16 01:32N 36°10' W 005°23'0 0.1
2015-Dec-16 00:32N 36°10' W 005°24'0 0.0
2015-Dec-15 23:29N 36°10' W 005°24'0 0.0
2015-Dec-15 22:29N 36°10' W 005°24'0 0.0
2015-Dec-15 21:29N 36°10' W 005°24'0 0.0
2015-Dec-15 20:32N 36°10' W 005°24'0 0.1
2015-Dec-15 18:32N 36°10' W 005°24'0 0.2
2015-Dec-15 17:32N 36°10' W 005°24'0 0.0
2015-Dec-15 16:29N 36°10' W 005°24'0 0.0
2015-Dec-15 15:29N 36°10' W 005°24'0 0.0
2015-Dec-15 14:29N 36°10' W 005°24'0 0.0
2015-Dec-15 13:29N 36°10' W 005°24'0 0.1
2015-Dec-15 12:32N 36°10' W 005°24'0 0.2
2015-Dec-15 11:29N 36°10' W 005°24'0 0.0
2015-Dec-15 09:08N 36°10' W 005°24'0 0.0
2015-Dec-15 08:29N 36°10' W 005°24'0 0.0
2015-Dec-15 07:32N 36°10' W 005°24'0 0.0
2015-Dec-15 06:32N 36°10' W 005°24'0 0.0
2015-Dec-15 05:33N 36°10' W 005°24'0 0.2
2015-Dec-15 04:34N 36°10' W 005°23'0 0.2
2015-Dec-15 03:33N 36°10' W 005°24'0 0.1
2015-Dec-15 02:33N 36°10' W 005°24'0 0.2
2015-Dec-15 01:34N 36°10' W 005°24'0 0.0
2015-Dec-15 00:34N 36°10' W 005°24'0 0.1
2015-Dec-14 23:32N 36°10' W 005°24'0 0.1
2015-Dec-14 22:33N 36°10' W 005°24'0 0.1
2015-Dec-14 21:33N 36°10' W 005°24'0 0.2
2015-Dec-14 20:34N 36°10' W 005°24'0 0.0
2015-Dec-14 19:33N 36°10' W 005°24'0 0.0
2015-Dec-14 18:33N 36°10' W 005°24'0 0.1
2015-Dec-14 17:33N 36°10' W 005°24'0 0.1
2015-Dec-14 16:33N 36°10' W 005°24'0 0.0
2015-Dec-14 15:33N 36°10' W 005°24'0 0.0
2015-Dec-14 14:33N 36°10' W 005°24'0 0.0
2015-Dec-14 13:34N 36°10' W 005°24'0 0.1
2015-Dec-14 12:33N 36°10' W 005°24'0 0.1
2015-Dec-14 11:33N 36°10' W 005°24'0 0.1
2015-Dec-14 10:33N 36°10' W 005°24'2 2.4
2015-Dec-14 09:33N 36°07' W 005°23'4 3.6
2015-Dec-14 08:34N 36°05' W 005°20'7 7.0
2015-Dec-14 07:33N 36°10' W 005°14'0 0.5
2015-Dec-14 06:33N 36°11' W 005°14'0 0.4
2015-Dec-14 05:33N 36°10' W 005°14'1 0.6
2015-Dec-14 04:33N 36°10' W 005°14'0 0.3
2015-Dec-14 03:33N 36°10' W 005°13'1 0.6
2015-Dec-14 02:33N 36°09' W 005°13'1 0.8
2015-Dec-14 01:33N 36°09' W 005°12'1 0.9
2015-Dec-14 00:33N 36°10' W 005°11'1 0.8
2015-Dec-13 23:33N 36°10' W 005°10'1 0.6
2015-Dec-13 22:33N 36°11' W 005°10'0 0.0
2015-Dec-13 21:33N 36°11' W 005°10'0 0.3
2015-Dec-13 20:32N 36°11' W 005°10'0 0.5
2015-Dec-13 19:33N 36°10' W 005°10'0 0.4
2015-Dec-13 18:33N 36°10' W 005°10'1 0.6
2015-Dec-13 17:33N 36°09' W 005°10'1 0.4
2015-Dec-13 16:10N 36°09' W 005°10'0 0.4
2015-Dec-13 15:33N 36°09' W 005°11'0 0.3
2015-Dec-13 14:33N 36°09' W 005°11'1 1.0
2015-Dec-13 13:33N 36°09' W 005°12'8 8.3
2015-Dec-13 12:33N 36°04' W 005°20'1111.3
2015-Dec-13 11:33N 35°57' W 005°31'1111.0
2015-Dec-13 10:33N 35°54' W 005°44'8 8.3
2015-Dec-13 09:33N 35°55' W 005°54'  
2015-Dec-09 01:33N 29°06' W 015°08'1212.4
2015-Dec-09 00:33N 28°57' W 015°18'1312.4
2015-Dec-08 23:33N 28°48' W 015°28'1212.4
2015-Dec-08 22:33N 28°38' W 015°37'1212.4
2015-Dec-08 21:33N 28°29' W 015°46'1312.8
2015-Dec-08 20:33N 28°19' W 015°55'4113.3
2015-Dec-08 17:30N 27°47' W 016°24'  

Dump ship's entire track history